sensor_id;sensor_type;location;lat;lon;timestamp;P1;durP1;ratioP1;P2;durP2;ratioP2
22127;SDS011;11230;50.854;6.454;2022-07-26T00:00:30;0.20;;;0.20;;
22127;SDS011;11230;50.854;6.454;2022-07-26T00:05:11;0.10;;;0.10;;
22127;SDS011;11230;50.854;6.454;2022-07-26T00:09:53;0.20;;;0.20;;
22127;SDS011;11230;50.854;6.454;2022-07-26T00:14:35;0.70;;;0.50;;
22127;SDS011;11230;50.854;6.454;2022-07-26T00:19:17;0.10;;;0.10;;
22127;SDS011;11230;50.854;6.454;2022-07-26T00:23:58;6.05;;;1.13;;
22127;SDS011;11230;50.854;6.454;2022-07-26T00:28:40;0.30;;;0.28;;
22127;SDS011;11230;50.854;6.454;2022-07-26T00:33:22;0.10;;;0.10;;
22127;SDS011;11230;50.854;6.454;2022-07-26T00:38:04;0.93;;;0.55;;
22127;SDS011;11230;50.854;6.454;2022-07-26T00:42:45;0.10;;;0.10;;
22127;SDS011;11230;50.854;6.454;2022-07-26T00:47:26;0.75;;;0.55;;
22127;SDS011;11230;50.854;6.454;2022-07-26T00:52:10;0.30;;;0.30;;
22127;SDS011;11230;50.854;6.454;2022-07-26T00:56:51;0.10;;;0.10;;
22127;SDS011;11230;50.854;6.454;2022-07-26T01:01:33;0.10;;;0.10;;
22127;SDS011;11230;50.854;6.454;2022-07-26T01:06:14;0.10;;;0.10;;
22127;SDS011;11230;50.854;6.454;2022-07-26T01:10:57;0.20;;;0.20;;
22127;SDS011;11230;50.854;6.454;2022-07-26T01:15:38;0.70;;;0.32;;
22127;SDS011;11230;50.854;6.454;2022-07-26T01:20:20;0.63;;;0.40;;
22127;SDS011;11230;50.854;6.454;2022-07-26T01:25:03;0.47;;;0.20;;
22127;SDS011;11230;50.854;6.454;2022-07-26T01:29:44;0.10;;;0.10;;
22127;SDS011;11230;50.854;6.454;2022-07-26T01:34:26;0.20;;;0.20;;
22127;SDS011;11230;50.854;6.454;2022-07-26T01:39:07;0.30;;;0.30;;
22127;SDS011;11230;50.854;6.454;2022-07-26T01:43:50;0.45;;;0.35;;
22127;SDS011;11230;50.854;6.454;2022-07-26T01:48:31;0.55;;;0.25;;
22127;SDS011;11230;50.854;6.454;2022-07-26T01:53:13;0.10;;;0.10;;
22127;SDS011;11230;50.854;6.454;2022-07-26T01:57:54;4.20;;;0.30;;
22127;SDS011;11230;50.854;6.454;2022-07-26T02:02:37;0.20;;;0.20;;
22127;SDS011;11230;50.854;6.454;2022-07-26T02:07:19;11.40;;;0.30;;
22127;SDS011;11230;50.854;6.454;2022-07-26T02:12:00;0.10;;;0.10;;
22127;SDS011;11230;50.854;6.454;2022-07-26T02:16:41;1.95;;;0.65;;
22127;SDS011;11230;50.854;6.454;2022-07-26T02:21:24;0.40;;;0.40;;
22127;SDS011;11230;50.854;6.454;2022-07-26T02:26:05;0.40;;;0.40;;
22127;SDS011;11230;50.854;6.454;2022-07-26T02:30:47;2.63;;;0.50;;
22127;SDS011;11230;50.854;6.454;2022-07-26T02:35:28;0.20;;;0.20;;
22127;SDS011;11230;50.854;6.454;2022-07-26T02:40:12;0.63;;;0.43;;
22127;SDS011;11230;50.854;6.454;2022-07-26T02:44:54;11.40;;;0.65;;
22127;SDS011;11230;50.854;6.454;2022-07-26T02:49:35;9.48;;;0.60;;
22127;SDS011;11230;50.854;6.454;2022-07-26T02:54:16;0.95;;;0.25;;
22127;SDS011;11230;50.854;6.454;2022-07-26T02:58:59;0.10;;;0.10;;
22127;SDS011;11230;50.854;6.454;2022-07-26T03:03:41;0.13;;;0.13;;
22127;SDS011;11230;50.854;6.454;2022-07-26T03:08:22;0.88;;;0.40;;
22127;SDS011;11230;50.854;6.454;2022-07-26T03:13:03;0.20;;;0.20;;
22127;SDS011;11230;50.854;6.454;2022-07-26T03:17:46;0.70;;;0.70;;
22127;SDS011;11230;50.854;6.454;2022-07-26T03:22:28;0.30;;;0.20;;
22127;SDS011;11230;50.854;6.454;2022-07-26T03:27:10;0.20;;;0.20;;
22127;SDS011;11230;50.854;6.454;2022-07-26T03:31:51;0.20;;;0.20;;
22127;SDS011;11230;50.854;6.454;2022-07-26T03:36:34;0.47;;;0.30;;
22127;SDS011;11230;50.854;6.454;2022-07-26T03:41:15;0.10;;;0.10;;
22127;SDS011;11230;50.854;6.454;2022-07-26T03:45:57;0.20;;;0.20;;
22127;SDS011;11230;50.854;6.454;2022-07-26T03:50:38;0.65;;;0.52;;
22127;SDS011;11230;50.854;6.454;2022-07-26T03:55:21;2.17;;;1.10;;
22127;SDS011;11230;50.854;6.454;2022-07-26T04:00:20;0.28;;;0.28;;
22127;SDS011;11230;50.854;6.454;2022-07-26T04:05:01;0.28;;;0.28;;
22127;SDS011;11230;50.854;6.454;2022-07-26T04:09:43;0.20;;;0.20;;
22127;SDS011;11230;50.854;6.454;2022-07-26T04:14:25;0.85;;;0.47;;
22127;SDS011;11230;50.854;6.454;2022-07-26T04:19:07;2.42;;;1.13;;
22127;SDS011;11230;50.854;6.454;2022-07-26T04:23:49;1.10;;;0.88;;
22127;SDS011;11230;50.854;6.454;2022-07-26T04:28:30;1.23;;;1.13;;
22127;SDS011;11230;50.854;6.454;2022-07-26T04:33:13;0.47;;;0.40;;
22127;SDS011;11230;50.854;6.454;2022-07-26T04:37:55;1.02;;;0.57;;
22127;SDS011;11230;50.854;6.454;2022-07-26T04:42:36;0.88;;;0.70;;
22127;SDS011;11230;50.854;6.454;2022-07-26T04:47:18;0.38;;;0.32;;
22127;SDS011;11230;50.854;6.454;2022-07-26T04:52:01;6.88;;;1.20;;
22127;SDS011;11230;50.854;6.454;2022-07-26T04:56:42;0.50;;;0.50;;
22127;SDS011;11230;50.854;6.454;2022-07-26T05:01:23;0.40;;;0.40;;
22127;SDS011;11230;50.854;6.454;2022-07-26T05:06:05;0.82;;;0.82;;
22127;SDS011;11230;50.854;6.454;2022-07-26T05:10:48;1.25;;;0.65;;
22127;SDS011;11230;50.854;6.454;2022-07-26T05:15:29;0.40;;;0.40;;
22127;SDS011;11230;50.854;6.454;2022-07-26T05:20:12;0.52;;;0.50;;
22127;SDS011;11230;50.854;6.454;2022-07-26T05:24:54;0.60;;;0.60;;
22127;SDS011;11230;50.854;6.454;2022-07-26T05:29:37;0.43;;;0.43;;
22127;SDS011;11230;50.854;6.454;2022-07-26T05:34:18;0.65;;;0.57;;
22127;SDS011;11230;50.854;6.454;2022-07-26T05:39:00;0.20;;;0.20;;
22127;SDS011;11230;50.854;6.454;2022-07-26T05:43:41;0.98;;;0.70;;
22127;SDS011;11230;50.854;6.454;2022-07-26T05:48:24;0.73;;;0.60;;
22127;SDS011;11230;50.854;6.454;2022-07-26T05:53:05;0.57;;;0.57;;
22127;SDS011;11230;50.854;6.454;2022-07-26T05:57:47;0.38;;;0.30;;
22127;SDS011;11230;50.854;6.454;2022-07-26T06:02:28;0.38;;;0.38;;
22127;SDS011;11230;50.854;6.454;2022-07-26T06:07:11;0.52;;;0.47;;
22127;SDS011;11230;50.854;6.454;2022-07-26T06:11:52;1.00;;;0.93;;
22127;SDS011;11230;50.854;6.454;2022-07-26T06:16:33;0.77;;;0.75;;
22127;SDS011;11230;50.854;6.454;2022-07-26T06:21:15;2.10;;;0.85;;
22127;SDS011;11230;50.854;6.454;2022-07-26T06:25:58;1.00;;;0.90;;
22127;SDS011;11230;50.854;6.454;2022-07-26T06:30:42;0.93;;;0.93;;
22127;SDS011;11230;50.854;6.454;2022-07-26T06:35:23;0.68;;;0.68;;
22127;SDS011;11230;50.854;6.454;2022-07-26T06:40:09;8.90;;;1.17;;
22127;SDS011;11230;50.854;6.454;2022-07-26T06:44:52;1.27;;;0.90;;
22127;SDS011;11230;50.854;6.454;2022-07-26T06:49:34;1.13;;;0.80;;
22127;SDS011;11230;50.854;6.454;2022-07-26T06:54:15;0.35;;;0.35;;
22127;SDS011;11230;50.854;6.454;2022-07-26T06:58:56;2.72;;;0.75;;
22127;SDS011;11230;50.854;6.454;2022-07-26T07:03:39;1.17;;;1.08;;
22127;SDS011;11230;50.854;6.454;2022-07-26T07:08:20;1.13;;;0.98;;
22127;SDS011;11230;50.854;6.454;2022-07-26T07:13:03;0.75;;;0.75;;
22127;SDS011;11230;50.854;6.454;2022-07-26T07:17:45;1.88;;;0.98;;
22127;SDS011;11230;50.854;6.454;2022-07-26T07:22:28;1.50;;;1.40;;
22127;SDS011;11230;50.854;6.454;2022-07-26T07:27:10;2.40;;;1.27;;
22127;SDS011;11230;50.854;6.454;2022-07-26T07:31:51;1.20;;;1.10;;
22127;SDS011;11230;50.854;6.454;2022-07-26T07:36:32;4.32;;;1.55;;
22127;SDS011;11230;50.854;6.454;2022-07-26T07:41:15;2.42;;;0.93;;
22127;SDS011;11230;50.854;6.454;2022-07-26T07:45:57;1.35;;;0.98;;
22127;SDS011;11230;50.854;6.454;2022-07-26T07:50:39;0.32;;;0.32;;
22127;SDS011;11230;50.854;6.454;2022-07-26T07:55:20;1.33;;;1.23;;
22127;SDS011;11230;50.854;6.454;2022-07-26T08:00:03;7.93;;;0.75;;
22127;SDS011;11230;50.854;6.454;2022-07-26T08:04:45;0.80;;;0.80;;
22127;SDS011;11230;50.854;6.454;2022-07-26T08:09:26;0.35;;;0.35;;
22127;SDS011;11230;50.854;6.454;2022-07-26T08:14:07;1.38;;;1.05;;
22127;SDS011;11230;50.854;6.454;2022-07-26T08:18:50;3.47;;;1.73;;
22127;SDS011;11230;50.854;6.454;2022-07-26T08:23:32;2.65;;;1.60;;
22127;SDS011;11230;50.854;6.454;2022-07-26T08:28:13;1.80;;;1.20;;
22127;SDS011;11230;50.854;6.454;2022-07-26T08:32:55;4.57;;;1.60;;
22127;SDS011;11230;50.854;6.454;2022-07-26T08:37:38;2.88;;;1.15;;
22127;SDS011;11230;50.854;6.454;2022-07-26T08:42:19;1.27;;;1.17;;
22127;SDS011;11230;50.854;6.454;2022-07-26T08:47:02;3.17;;;1.75;;
22127;SDS011;11230;50.854;6.454;2022-07-26T08:51:43;4.18;;;1.33;;
22127;SDS011;11230;50.854;6.454;2022-07-26T08:56:26;4.85;;;1.25;;
22127;SDS011;11230;50.854;6.454;2022-07-26T09:01:08;5.28;;;1.40;;
22127;SDS011;11230;50.854;6.454;2022-07-26T09:05:51;1.38;;;1.17;;
22127;SDS011;11230;50.854;6.454;2022-07-26T09:10:33;2.83;;;1.55;;
22127;SDS011;11230;50.854;6.454;2022-07-26T09:15:20;1.08;;;0.52;;
22127;SDS011;11230;50.854;6.454;2022-07-26T09:20:03;0.63;;;0.63;;
22127;SDS011;11230;50.854;6.454;2022-07-26T09:24:45;1.15;;;0.98;;
22127;SDS011;11230;50.854;6.454;2022-07-26T09:29:27;1.75;;;0.80;;
22127;SDS011;11230;50.854;6.454;2022-07-26T09:34:10;0.80;;;0.80;;
22127;SDS011;11230;50.854;6.454;2022-07-26T09:38:52;1.33;;;1.00;;
22127;SDS011;11230;50.854;6.454;2022-07-26T09:43:35;0.85;;;0.80;;
22127;SDS011;11230;50.854;6.454;2022-07-26T09:48:25;1.40;;;0.82;;
22127;SDS011;11230;50.854;6.454;2022-07-26T09:53:08;0.82;;;0.77;;
22127;SDS011;11230;50.854;6.454;2022-07-26T09:57:50;1.15;;;1.02;;
22127;SDS011;11230;50.854;6.454;2022-07-26T10:02:31;0.80;;;0.60;;
22127;SDS011;11230;50.854;6.454;2022-07-26T10:07:16;5.05;;;1.02;;
22127;SDS011;11230;50.854;6.454;2022-07-26T10:11:59;1.95;;;1.40;;
22127;SDS011;11230;50.854;6.454;2022-07-26T10:16:42;1.23;;;0.68;;
22127;SDS011;11230;50.854;6.454;2022-07-26T10:21:24;0.73;;;0.73;;
22127;SDS011;11230;50.854;6.454;2022-07-26T10:26:07;1.42;;;0.98;;
22127;SDS011;11230;50.854;6.454;2022-07-26T10:30:50;25.05;;;1.63;;
22127;SDS011;11230;50.854;6.454;2022-07-26T10:35:36;1.23;;;0.80;;
22127;SDS011;11230;50.854;6.454;2022-07-26T10:40:19;0.40;;;0.32;;
22127;SDS011;11230;50.854;6.454;2022-07-26T10:45:14;0.63;;;0.63;;
22127;SDS011;11230;50.854;6.454;2022-07-26T10:49:58;0.68;;;0.57;;
22127;SDS011;11230;50.854;6.454;2022-07-26T10:59:54;3.15;;;0.82;;
22127;SDS011;11230;50.854;6.454;2022-07-26T11:04:36;0.88;;;0.85;;
22127;SDS011;11230;50.854;6.454;2022-07-26T11:09:19;1.20;;;1.08;;
22127;SDS011;11230;50.854;6.454;2022-07-26T11:14:03;0.80;;;0.53;;
22127;SDS011;11230;50.854;6.454;2022-07-26T11:18:44;0.32;;;0.32;;
22127;SDS011;11230;50.854;6.454;2022-07-26T11:23:27;3.45;;;0.43;;
22127;SDS011;11230;50.854;6.454;2022-07-26T11:28:10;0.20;;;0.20;;
22127;SDS011;11230;50.854;6.454;2022-07-26T11:32:51;1.90;;;1.30;;
22127;SDS011;11230;50.854;6.454;2022-07-26T11:37:33;0.40;;;0.40;;
22127;SDS011;11230;50.854;6.454;2022-07-26T11:42:14;0.60;;;0.38;;
22127;SDS011;11230;50.854;6.454;2022-07-26T11:47:00;0.63;;;0.28;;
22127;SDS011;11230;50.854;6.454;2022-07-26T11:51:51;0.20;;;0.20;;
22127;SDS011;11230;50.854;6.454;2022-07-26T11:56:32;0.13;;;0.13;;
22127;SDS011;11230;50.854;6.454;2022-07-26T12:01:18;0.30;;;0.30;;
22127;SDS011;11230;50.854;6.454;2022-07-26T12:06:02;0.30;;;0.30;;
22127;SDS011;11230;50.854;6.454;2022-07-26T12:10:51;0.60;;;0.50;;
22127;SDS011;11230;50.854;6.454;2022-07-26T12:15:42;0.75;;;0.38;;
22127;SDS011;11230;50.854;6.454;2022-07-26T12:20:23;0.30;;;0.30;;
22127;SDS011;11230;50.854;6.454;2022-07-26T12:25:08;0.82;;;0.40;;
22127;SDS011;11230;50.854;6.454;2022-07-26T12:29:50;0.50;;;0.38;;
22127;SDS011;11230;50.854;6.454;2022-07-26T12:34:32;2.25;;;1.00;;
22127;SDS011;11230;50.854;6.454;2022-07-26T12:39:17;0.40;;;0.30;;
22127;SDS011;11230;50.854;6.454;2022-07-26T12:44:01;0.50;;;0.30;;
22127;SDS011;11230;50.854;6.454;2022-07-26T12:48:43;0.30;;;0.20;;
22127;SDS011;11230;50.854;6.454;2022-07-26T12:53:25;0.32;;;0.32;;
22127;SDS011;11230;50.854;6.454;2022-07-26T12:58:07;0.52;;;0.32;;
22127;SDS011;11230;50.854;6.454;2022-07-26T13:02:50;0.20;;;0.20;;
22127;SDS011;11230;50.854;6.454;2022-07-26T13:07:33;0.27;;;0.27;;
22127;SDS011;11230;50.854;6.454;2022-07-26T13:12:15;0.20;;;0.20;;
22127;SDS011;11230;50.854;6.454;2022-07-26T13:16:56;0.43;;;0.30;;
22127;SDS011;11230;50.854;6.454;2022-07-26T13:21:39;0.20;;;0.20;;
22127;SDS011;11230;50.854;6.454;2022-07-26T13:26:20;0.10;;;0.10;;
22127;SDS011;11230;50.854;6.454;2022-07-26T13:31:02;1.00;;;0.50;;
22127;SDS011;11230;50.854;6.454;2022-07-26T13:35:43;0.35;;;0.22;;
22127;SDS011;11230;50.854;6.454;2022-07-26T13:40:27;0.13;;;0.13;;
22127;SDS011;11230;50.854;6.454;2022-07-26T13:45:09;1.40;;;0.52;;
22127;SDS011;11230;50.854;6.454;2022-07-26T13:49:50;0.25;;;0.25;;
22127;SDS011;11230;50.854;6.454;2022-07-26T13:54:33;1.00;;;0.55;;
22127;SDS011;11230;50.854;6.454;2022-07-26T13:59:16;0.20;;;0.20;;
22127;SDS011;11230;50.854;6.454;2022-07-26T14:03:58;0.30;;;0.30;;
22127;SDS011;11230;50.854;6.454;2022-07-26T14:08:39;0.17;;;0.17;;
22127;SDS011;11230;50.854;6.454;2022-07-26T14:13:20;0.43;;;0.40;;
22127;SDS011;11230;50.854;6.454;2022-07-26T14:18:04;0.25;;;0.25;;
22127;SDS011;11230;50.854;6.454;2022-07-26T14:22:45;0.40;;;0.40;;
22127;SDS011;11230;50.854;6.454;2022-07-26T14:27:27;0.22;;;0.22;;
22127;SDS011;11230;50.854;6.454;2022-07-26T14:32:08;0.20;;;0.20;;
22127;SDS011;11230;50.854;6.454;2022-07-26T14:36:51;1.17;;;0.65;;
22127;SDS011;11230;50.854;6.454;2022-07-26T14:41:32;1.60;;;0.75;;
22127;SDS011;11230;50.854;6.454;2022-07-26T14:46:13;0.45;;;0.40;;
22127;SDS011;11230;50.854;6.454;2022-07-26T14:50:55;0.22;;;0.22;;
22127;SDS011;11230;50.854;6.454;2022-07-26T14:55:37;0.30;;;0.22;;
22127;SDS011;11230;50.854;6.454;2022-07-26T15:00:19;0.30;;;0.30;;
22127;SDS011;11230;50.854;6.454;2022-07-26T15:05:00;0.22;;;0.22;;
22127;SDS011;11230;50.854;6.454;2022-07-26T15:09:41;0.20;;;0.20;;
22127;SDS011;11230;50.854;6.454;2022-07-26T15:14:24;1.60;;;0.70;;
22127;SDS011;11230;50.854;6.454;2022-07-26T15:19:06;0.13;;;0.13;;
22127;SDS011;11230;50.854;6.454;2022-07-26T15:23:47;0.13;;;0.13;;
22127;SDS011;11230;50.854;6.454;2022-07-26T15:28:29;0.57;;;0.50;;
22127;SDS011;11230;50.854;6.454;2022-07-26T15:33:12;0.30;;;0.30;;
22127;SDS011;11230;50.854;6.454;2022-07-26T15:37:54;0.45;;;0.40;;
22127;SDS011;11230;50.854;6.454;2022-07-26T15:42:37;0.28;;;0.20;;
22127;SDS011;11230;50.854;6.454;2022-07-26T15:47:18;0.20;;;0.20;;
22127;SDS011;11230;50.854;6.454;2022-07-26T15:52:01;0.10;;;0.10;;
22127;SDS011;11230;50.854;6.454;2022-07-26T15:56:42;0.40;;;0.40;;
22127;SDS011;11230;50.854;6.454;2022-07-26T16:01:24;0.30;;;0.20;;
22127;SDS011;11230;50.854;6.454;2022-07-26T16:06:05;0.10;;;0.10;;
22127;SDS011;11230;50.854;6.454;2022-07-26T16:10:48;0.13;;;0.13;;
22127;SDS011;11230;50.854;6.454;2022-07-26T16:15:29;0.30;;;0.20;;
22127;SDS011;11230;50.854;6.454;2022-07-26T16:20:11;0.30;;;0.30;;
22127;SDS011;11230;50.854;6.454;2022-07-26T16:24:54;0.22;;;0.22;;
22127;SDS011;11230;50.854;6.454;2022-07-26T16:29:37;0.20;;;0.20;;
22127;SDS011;11230;50.854;6.454;2022-07-26T16:34:19;0.20;;;0.20;;
22127;SDS011;11230;50.854;6.454;2022-07-26T16:39:00;0.10;;;0.10;;
22127;SDS011;11230;50.854;6.454;2022-07-26T16:43:41;0.30;;;0.20;;
22127;SDS011;11230;50.854;6.454;2022-07-26T16:48:24;0.10;;;0.10;;
22127;SDS011;11230;50.854;6.454;2022-07-26T16:53:05;0.20;;;0.20;;
22127;SDS011;11230;50.854;6.454;2022-07-26T16:57:47;0.20;;;0.20;;
22127;SDS011;11230;50.854;6.454;2022-07-26T17:02:28;0.20;;;0.20;;
22127;SDS011;11230;50.854;6.454;2022-07-26T17:07:11;4.20;;;0.90;;
22127;SDS011;11230;50.854;6.454;2022-07-26T17:11:52;0.20;;;0.20;;
22127;SDS011;11230;50.854;6.454;2022-07-26T17:16:33;0.25;;;0.25;;
22127;SDS011;11230;50.854;6.454;2022-07-26T17:21:15;0.25;;;0.25;;
22127;SDS011;11230;50.854;6.454;2022-07-26T17:25:57;0.20;;;0.20;;
22127;SDS011;11230;50.854;6.454;2022-07-26T17:30:39;0.20;;;0.20;;
22127;SDS011;11230;50.854;6.454;2022-07-26T17:35:20;0.10;;;0.10;;
22127;SDS011;11230;50.854;6.454;2022-07-26T17:40:02;0.10;;;0.10;;
22127;SDS011;11230;50.854;6.454;2022-07-26T17:44:45;0.20;;;0.10;;
22127;SDS011;11230;50.854;6.454;2022-07-26T17:49:27;0.10;;;0.10;;
22127;SDS011;11230;50.854;6.454;2022-07-26T17:54:08;0.10;;;0.10;;
22127;SDS011;11230;50.854;6.454;2022-07-26T17:58:49;0.20;;;0.20;;
22127;SDS011;11230;50.854;6.454;2022-07-26T18:03:32;0.10;;;0.10;;
22127;SDS011;11230;50.854;6.454;2022-07-26T18:08:14;0.10;;;0.10;;
22127;SDS011;11230;50.854;6.454;2022-07-26T18:12:55;0.10;;;0.10;;
22127;SDS011;11230;50.854;6.454;2022-07-26T18:17:37;0.20;;;0.20;;
22127;SDS011;11230;50.854;6.454;2022-07-26T18:22:20;0.20;;;0.20;;
22127;SDS011;11230;50.854;6.454;2022-07-26T18:27:02;0.82;;;0.20;;
22127;SDS011;11230;50.854;6.454;2022-07-26T18:31:43;0.40;;;0.40;;
22127;SDS011;11230;50.854;6.454;2022-07-26T18:36:24;1.58;;;0.40;;
22127;SDS011;11230;50.854;6.454;2022-07-26T18:41:07;0.52;;;0.20;;
22127;SDS011;11230;50.854;6.454;2022-07-26T18:45:49;1.20;;;0.73;;
22127;SDS011;11230;50.854;6.454;2022-07-26T18:50:31;0.30;;;0.30;;
22127;SDS011;11230;50.854;6.454;2022-07-26T18:55:12;0.20;;;0.20;;
22127;SDS011;11230;50.854;6.454;2022-07-26T18:59:55;0.22;;;0.22;;
22127;SDS011;11230;50.854;6.454;2022-07-26T19:04:37;1.45;;;0.88;;
22127;SDS011;11230;50.854;6.454;2022-07-26T19:09:18;0.10;;;0.10;;
22127;SDS011;11230;50.854;6.454;2022-07-26T19:13:59;0.10;;;0.10;;
22127;SDS011;11230;50.854;6.454;2022-07-26T19:18:42;0.10;;;0.10;;
22127;SDS011;11230;50.854;6.454;2022-07-26T19:23:23;0.20;;;0.20;;
22127;SDS011;11230;50.854;6.454;2022-07-26T19:28:05;0.10;;;0.10;;
22127;SDS011;11230;50.854;6.454;2022-07-26T19:32:47;0.20;;;0.20;;
22127;SDS011;11230;50.854;6.454;2022-07-26T19:37:29;2.38;;;0.30;;
22127;SDS011;11230;50.854;6.454;2022-07-26T19:42:11;0.20;;;0.20;;
22127;SDS011;11230;50.854;6.454;2022-07-26T19:46:52;0.10;;;0.10;;
22127;SDS011;11230;50.854;6.454;2022-07-26T19:51:34;0.38;;;0.30;;
22127;SDS011;11230;50.854;6.454;2022-07-26T19:56:16;0.25;;;0.25;;
22127;SDS011;11230;50.854;6.454;2022-07-26T20:01:02;0.30;;;0.30;;
22127;SDS011;11230;50.854;6.454;2022-07-26T20:05:43;0.55;;;0.30;;
22127;SDS011;11230;50.854;6.454;2022-07-26T20:10:25;0.30;;;0.30;;
22127;SDS011;11230;50.854;6.454;2022-07-26T20:15:08;0.20;;;0.20;;
22127;SDS011;11230;50.854;6.454;2022-07-26T20:19:50;1.33;;;0.50;;
22127;SDS011;11230;50.854;6.454;2022-07-26T20:24:32;0.40;;;0.40;;
22127;SDS011;11230;50.854;6.454;2022-07-26T20:29:13;0.10;;;0.10;;
22127;SDS011;11230;50.854;6.454;2022-07-26T20:33:56;0.10;;;0.10;;
22127;SDS011;11230;50.854;6.454;2022-07-26T20:38:37;0.20;;;0.20;;
22127;SDS011;11230;50.854;6.454;2022-07-26T20:43:18;0.20;;;0.20;;
22127;SDS011;11230;50.854;6.454;2022-07-26T20:48:01;0.65;;;0.57;;
22127;SDS011;11230;50.854;6.454;2022-07-26T20:52:43;0.10;;;0.10;;
22127;SDS011;11230;50.854;6.454;2022-07-26T20:57:26;0.32;;;0.32;;
22127;SDS011;11230;50.854;6.454;2022-07-26T21:02:07;0.20;;;0.20;;
22127;SDS011;11230;50.854;6.454;2022-07-26T21:06:48;0.30;;;0.20;;
22127;SDS011;11230;50.854;6.454;2022-07-26T21:11:32;0.10;;;0.10;;
22127;SDS011;11230;50.854;6.454;2022-07-26T21:16:13;1.48;;;0.68;;
22127;SDS011;11230;50.854;6.454;2022-07-26T21:20:54;0.17;;;0.17;;
22127;SDS011;11230;50.854;6.454;2022-07-26T21:25:36;0.38;;;0.20;;
22127;SDS011;11230;50.854;6.454;2022-07-26T21:30:19;0.15;;;0.10;;
22127;SDS011;11230;50.854;6.454;2022-07-26T21:35:00;0.85;;;0.50;;
22127;SDS011;11230;50.854;6.454;2022-07-26T21:39:42;0.20;;;0.17;;
22127;SDS011;11230;50.854;6.454;2022-07-26T21:44:23;0.15;;;0.15;;
22127;SDS011;11230;50.854;6.454;2022-07-26T21:49:07;0.30;;;0.20;;
22127;SDS011;11230;50.854;6.454;2022-07-26T21:53:48;0.10;;;0.10;;
22127;SDS011;11230;50.854;6.454;2022-07-26T21:58:29;0.30;;;0.30;;
22127;SDS011;11230;50.854;6.454;2022-07-26T22:03:11;1.17;;;0.73;;
22127;SDS011;11230;50.854;6.454;2022-07-26T22:07:54;0.10;;;0.10;;
22127;SDS011;11230;50.854;6.454;2022-07-26T22:12:35;0.70;;;0.40;;
22127;SDS011;11230;50.854;6.454;2022-07-26T22:17:16;0.20;;;0.20;;
22127;SDS011;11230;50.854;6.454;2022-07-26T22:21:58;0.20;;;0.17;;
22127;SDS011;11230;50.854;6.454;2022-07-26T22:26:42;0.10;;;0.10;;
22127;SDS011;11230;50.854;6.454;2022-07-26T22:31:24;0.20;;;0.20;;
22127;SDS011;11230;50.854;6.454;2022-07-26T22:36:05;0.20;;;0.20;;
22127;SDS011;11230;50.854;6.454;2022-07-26T22:40:48;0.10;;;0.10;;
22127;SDS011;11230;50.854;6.454;2022-07-26T22:45:31;0.85;;;0.30;;
22127;SDS011;11230;50.854;6.454;2022-07-26T22:50:13;0.10;;;0.10;;
22127;SDS011;11230;50.854;6.454;2022-07-26T22:54:54;0.10;;;0.10;;
22127;SDS011;11230;50.854;6.454;2022-07-26T22:59:35;0.10;;;0.10;;
22127;SDS011;11230;50.854;6.454;2022-07-26T23:04:18;0.20;;;0.20;;
22127;SDS011;11230;50.854;6.454;2022-07-26T23:08:59;0.10;;;0.10;;
22127;SDS011;11230;50.854;6.454;2022-07-26T23:13:40;0.50;;;0.43;;
22127;SDS011;11230;50.854;6.454;2022-07-26T23:18:22;0.30;;;0.30;;
22127;SDS011;11230;50.854;6.454;2022-07-26T23:23:05;0.20;;;0.20;;
22127;SDS011;11230;50.854;6.454;2022-07-26T23:27:46;0.20;;;0.20;;
22127;SDS011;11230;50.854;6.454;2022-07-26T23:32:28;0.10;;;0.10;;
22127;SDS011;11230;50.854;6.454;2022-07-26T23:37:09;0.40;;;0.25;;
22127;SDS011;11230;50.854;6.454;2022-07-26T23:41:52;0.10;;;0.10;;
22127;SDS011;11230;50.854;6.454;2022-07-26T23:46:33;0.10;;;0.10;;
22127;SDS011;11230;50.854;6.454;2022-07-26T23:51:14;0.20;;;0.17;;
22127;SDS011;11230;50.854;6.454;2022-07-26T23:55:56;0.10;;;0.10;;
